sensor_id;sensor_type;location;lat;lon;timestamp;P1;durP1;ratioP1;P2;durP2;ratioP2
19842;SDS011;10082;51.038;6.992;2022-10-12T00:00:32;12.07;;;10.33;;
19842;SDS011;10082;51.038;6.992;2022-10-12T00:02:59;13.30;;;10.20;;
19842;SDS011;10082;51.038;6.992;2022-10-12T00:05:28;15.83;;;10.13;;
19842;SDS011;10082;51.038;6.992;2022-10-12T00:07:55;12.67;;;10.00;;
19842;SDS011;10082;51.038;6.992;2022-10-12T00:10:21;11.30;;;9.13;;
19842;SDS011;10082;51.038;6.992;2022-10-12T00:12:48;15.03;;;10.33;;
19842;SDS011;10082;51.038;6.992;2022-10-12T00:15:15;11.73;;;9.80;;
19842;SDS011;10082;51.038;6.992;2022-10-12T00:17:42;10.93;;;9.03;;
19842;SDS011;10082;51.038;6.992;2022-10-12T00:20:10;12.03;;;9.80;;
19842;SDS011;10082;51.038;6.992;2022-10-12T00:22:39;12.90;;;9.70;;
19842;SDS011;10082;51.038;6.992;2022-10-12T00:25:06;12.33;;;9.60;;
19842;SDS011;10082;51.038;6.992;2022-10-12T00:27:33;15.10;;;9.87;;
19842;SDS011;10082;51.038;6.992;2022-10-12T00:30:00;14.53;;;10.13;;
19842;SDS011;10082;51.038;6.992;2022-10-12T00:32:27;14.20;;;10.90;;
19842;SDS011;10082;51.038;6.992;2022-10-12T00:34:54;12.47;;;10.10;;
19842;SDS011;10082;51.038;6.992;2022-10-12T00:37:21;13.57;;;10.10;;
19842;SDS011;10082;51.038;6.992;2022-10-12T00:39:49;12.33;;;9.83;;
19842;SDS011;10082;51.038;6.992;2022-10-12T00:42:17;10.47;;;8.90;;
19842;SDS011;10082;51.038;6.992;2022-10-12T00:44:45;10.80;;;9.67;;
19842;SDS011;10082;51.038;6.992;2022-10-12T00:47:22;11.63;;;9.90;;
19842;SDS011;10082;51.038;6.992;2022-10-12T00:49:57;13.80;;;10.10;;
19842;SDS011;10082;51.038;6.992;2022-10-12T00:52:29;13.93;;;11.07;;
19842;SDS011;10082;51.038;6.992;2022-10-12T00:55:02;15.83;;;10.87;;
19842;SDS011;10082;51.038;6.992;2022-10-12T00:57:30;13.87;;;10.47;;
19842;SDS011;10082;51.038;6.992;2022-10-12T00:59:57;15.63;;;11.63;;
19842;SDS011;10082;51.038;6.992;2022-10-12T01:02:28;15.67;;;12.00;;
19842;SDS011;10082;51.038;6.992;2022-10-12T01:04:57;13.47;;;11.57;;
19842;SDS011;10082;51.038;6.992;2022-10-12T01:07:24;13.33;;;10.93;;
19842;SDS011;10082;51.038;6.992;2022-10-12T01:09:51;13.57;;;10.47;;
19842;SDS011;10082;51.038;6.992;2022-10-12T01:12:20;12.70;;;10.20;;
19842;SDS011;10082;51.038;6.992;2022-10-12T01:14:48;12.13;;;9.60;;
19842;SDS011;10082;51.038;6.992;2022-10-12T01:17:19;14.17;;;9.43;;
19842;SDS011;10082;51.038;6.992;2022-10-12T01:20:04;14.70;;;10.20;;
19842;SDS011;10082;51.038;6.992;2022-10-12T01:22:57;11.57;;;9.67;;
19842;SDS011;10082;51.038;6.992;2022-10-12T01:25:38;13.80;;;10.03;;
19842;SDS011;10082;51.038;6.992;2022-10-12T01:28:22;10.63;;;9.50;;
19842;SDS011;10082;51.038;6.992;2022-10-12T01:31:01;13.67;;;10.40;;
19842;SDS011;10082;51.038;6.992;2022-10-12T01:33:33;10.63;;;9.13;;
19842;SDS011;10082;51.038;6.992;2022-10-12T01:36:03;12.30;;;9.17;;
19842;SDS011;10082;51.038;6.992;2022-10-12T01:38:37;12.17;;;9.70;;
19842;SDS011;10082;51.038;6.992;2022-10-12T01:41:12;10.93;;;9.57;;
19842;SDS011;10082;51.038;6.992;2022-10-12T01:43:43;14.23;;;9.83;;
19842;SDS011;10082;51.038;6.992;2022-10-12T01:49:11;11.60;;;9.40;;
19842;SDS011;10082;51.038;6.992;2022-10-12T01:51:48;11.60;;;10.07;;
19842;SDS011;10082;51.038;6.992;2022-10-12T01:54:25;14.10;;;10.20;;
19842;SDS011;10082;51.038;6.992;2022-10-12T01:57:00;10.77;;;9.63;;
19842;SDS011;10082;51.038;6.992;2022-10-12T01:59:36;11.67;;;9.70;;
19842;SDS011;10082;51.038;6.992;2022-10-12T02:02:12;14.07;;;10.63;;
19842;SDS011;10082;51.038;6.992;2022-10-12T02:04:46;13.33;;;9.63;;
19842;SDS011;10082;51.038;6.992;2022-10-12T02:07:19;10.80;;;9.57;;
19842;SDS011;10082;51.038;6.992;2022-10-12T02:09:52;11.67;;;9.47;;
19842;SDS011;10082;51.038;6.992;2022-10-12T02:12:23;9.87;;;8.90;;
19842;SDS011;10082;51.038;6.992;2022-10-12T02:14:55;12.20;;;8.83;;
19842;SDS011;10082;51.038;6.992;2022-10-12T02:17:26;13.00;;;9.20;;
19842;SDS011;10082;51.038;6.992;2022-10-12T02:19:56;10.20;;;8.63;;
19842;SDS011;10082;51.038;6.992;2022-10-12T02:22:25;12.17;;;7.57;;
19842;SDS011;10082;51.038;6.992;2022-10-12T02:24:58;9.80;;;7.97;;
19842;SDS011;10082;51.038;6.992;2022-10-12T02:27:28;11.37;;;7.63;;
19842;SDS011;10082;51.038;6.992;2022-10-12T02:29:57;9.10;;;7.67;;
19842;SDS011;10082;51.038;6.992;2022-10-12T02:32:25;8.33;;;7.20;;
19842;SDS011;10082;51.038;6.992;2022-10-12T02:35:01;8.37;;;7.23;;
19842;SDS011;10082;51.038;6.992;2022-10-12T02:37:33;7.80;;;7.10;;
19842;SDS011;10082;51.038;6.992;2022-10-12T02:40:06;9.03;;;7.47;;
19842;SDS011;10082;51.038;6.992;2022-10-12T02:42:38;9.40;;;6.97;;
19842;SDS011;10082;51.038;6.992;2022-10-12T02:45:09;9.27;;;7.50;;
19842;SDS011;10082;51.038;6.992;2022-10-12T02:47:40;8.80;;;7.77;;
19842;SDS011;10082;51.038;6.992;2022-10-12T02:50:09;10.17;;;7.70;;
19842;SDS011;10082;51.038;6.992;2022-10-12T02:52:37;12.00;;;7.90;;
19842;SDS011;10082;51.038;6.992;2022-10-12T02:55:04;11.10;;;8.20;;
19842;SDS011;10082;51.038;6.992;2022-10-12T02:57:32;7.90;;;7.10;;
19842;SDS011;10082;51.038;6.992;2022-10-12T02:59:59;11.00;;;7.50;;
19842;SDS011;10082;51.038;6.992;2022-10-12T03:02:25;11.63;;;8.73;;
19842;SDS011;10082;51.038;6.992;2022-10-12T03:04:54;9.00;;;7.73;;
19842;SDS011;10082;51.038;6.992;2022-10-12T03:07:21;8.33;;;7.50;;
19842;SDS011;10082;51.038;6.992;2022-10-12T03:09:48;12.43;;;8.83;;
19842;SDS011;10082;51.038;6.992;2022-10-12T03:12:15;11.60;;;9.73;;
19842;SDS011;10082;51.038;6.992;2022-10-12T03:14:42;11.93;;;8.27;;
19842;SDS011;10082;51.038;6.992;2022-10-12T03:17:08;9.07;;;8.10;;
19842;SDS011;10082;51.038;6.992;2022-10-12T03:19:35;11.70;;;8.50;;
19842;SDS011;10082;51.038;6.992;2022-10-12T03:22:05;9.93;;;8.10;;
19842;SDS011;10082;51.038;6.992;2022-10-12T03:24:32;12.63;;;8.20;;
19842;SDS011;10082;51.038;6.992;2022-10-12T03:26:59;10.83;;;8.20;;
19842;SDS011;10082;51.038;6.992;2022-10-12T03:29:26;12.40;;;8.37;;
19842;SDS011;10082;51.038;6.992;2022-10-12T03:31:53;10.57;;;8.50;;
19842;SDS011;10082;51.038;6.992;2022-10-12T03:34:19;10.97;;;8.63;;
19842;SDS011;10082;51.038;6.992;2022-10-12T03:36:46;12.90;;;9.20;;
19842;SDS011;10082;51.038;6.992;2022-10-12T03:39:15;13.37;;;9.43;;
19842;SDS011;10082;51.038;6.992;2022-10-12T03:41:42;13.00;;;9.10;;
19842;SDS011;10082;51.038;6.992;2022-10-12T03:44:09;10.57;;;8.67;;
19842;SDS011;10082;51.038;6.992;2022-10-12T03:46:36;12.30;;;8.90;;
19842;SDS011;10082;51.038;6.992;2022-10-12T03:49:03;14.80;;;9.73;;
19842;SDS011;10082;51.038;6.992;2022-10-12T03:51:29;11.17;;;8.67;;
19842;SDS011;10082;51.038;6.992;2022-10-12T03:53:56;9.77;;;8.77;;
19842;SDS011;10082;51.038;6.992;2022-10-12T03:56:25;12.90;;;9.57;;
19842;SDS011;10082;51.038;6.992;2022-10-12T03:58:52;14.07;;;9.73;;
19842;SDS011;10082;51.038;6.992;2022-10-12T04:01:19;13.13;;;8.87;;
19842;SDS011;10082;51.038;6.992;2022-10-12T04:03:45;13.40;;;8.77;;
19842;SDS011;10082;51.038;6.992;2022-10-12T04:06:12;9.17;;;8.00;;
19842;SDS011;10082;51.038;6.992;2022-10-12T04:08:40;9.10;;;8.07;;
19842;SDS011;10082;51.038;6.992;2022-10-12T04:11:07;11.53;;;8.37;;
19842;SDS011;10082;51.038;6.992;2022-10-12T04:13:35;12.40;;;8.40;;
19842;SDS011;10082;51.038;6.992;2022-10-12T04:16:02;12.07;;;8.53;;
19842;SDS011;10082;51.038;6.992;2022-10-12T04:18:31;10.33;;;8.47;;
19842;SDS011;10082;51.038;6.992;2022-10-12T04:20:59;10.17;;;8.20;;
19842;SDS011;10082;51.038;6.992;2022-10-12T04:23:26;10.83;;;8.30;;
19842;SDS011;10082;51.038;6.992;2022-10-12T04:25:53;11.33;;;7.53;;
19842;SDS011;10082;51.038;6.992;2022-10-12T04:28:20;11.30;;;7.53;;
19842;SDS011;10082;51.038;6.992;2022-10-12T04:30:48;8.53;;;7.30;;
19842;SDS011;10082;51.038;6.992;2022-10-12T04:33:15;10.87;;;7.80;;
19842;SDS011;10082;51.038;6.992;2022-10-12T04:35:42;11.43;;;8.30;;
19842;SDS011;10082;51.038;6.992;2022-10-12T04:38:09;12.47;;;9.07;;
19842;SDS011;10082;51.038;6.992;2022-10-12T04:40:37;13.40;;;8.57;;
19842;SDS011;10082;51.038;6.992;2022-10-12T04:43:04;9.50;;;7.43;;
19842;SDS011;10082;51.038;6.992;2022-10-12T04:45:31;10.00;;;8.17;;
19842;SDS011;10082;51.038;6.992;2022-10-12T04:47:59;11.87;;;8.03;;
19842;SDS011;10082;51.038;6.992;2022-10-12T04:50:26;8.30;;;7.47;;
19842;SDS011;10082;51.038;6.992;2022-10-12T04:52:53;11.67;;;7.77;;
19842;SDS011;10082;51.038;6.992;2022-10-12T04:55:20;8.50;;;7.53;;
19842;SDS011;10082;51.038;6.992;2022-10-12T04:57:47;10.43;;;7.60;;
19842;SDS011;10082;51.038;6.992;2022-10-12T05:00:15;11.57;;;8.00;;
19842;SDS011;10082;51.038;6.992;2022-10-12T05:02:42;9.90;;;8.40;;
19842;SDS011;10082;51.038;6.992;2022-10-12T05:05:11;9.70;;;8.60;;
19842;SDS011;10082;51.038;6.992;2022-10-12T05:07:38;10.07;;;8.77;;
19842;SDS011;10082;51.038;6.992;2022-10-12T05:10:05;11.23;;;7.97;;
19842;SDS011;10082;51.038;6.992;2022-10-12T05:12:32;11.57;;;8.03;;
19842;SDS011;10082;51.038;6.992;2022-10-12T05:14:59;12.07;;;7.63;;
19842;SDS011;10082;51.038;6.992;2022-10-12T05:17:26;8.63;;;6.70;;
19842;SDS011;10082;51.038;6.992;2022-10-12T05:19:53;9.63;;;7.87;;
19842;SDS011;10082;51.038;6.992;2022-10-12T05:22:24;9.73;;;8.10;;
19842;SDS011;10082;51.038;6.992;2022-10-12T05:24:51;9.43;;;7.50;;
19842;SDS011;10082;51.038;6.992;2022-10-12T05:27:18;11.03;;;8.00;;
19842;SDS011;10082;51.038;6.992;2022-10-12T05:29:45;8.13;;;7.20;;
19842;SDS011;10082;51.038;6.992;2022-10-12T05:32:12;10.60;;;6.87;;
19842;SDS011;10082;51.038;6.992;2022-10-12T05:34:39;11.87;;;7.40;;
19842;SDS011;10082;51.038;6.992;2022-10-12T05:37:06;10.60;;;7.30;;
19842;SDS011;10082;51.038;6.992;2022-10-12T05:39:34;9.33;;;6.83;;
19842;SDS011;10082;51.038;6.992;2022-10-12T05:42:02;10.13;;;7.13;;
19842;SDS011;10082;51.038;6.992;2022-10-12T05:44:29;8.33;;;6.50;;
19842;SDS011;10082;51.038;6.992;2022-10-12T05:46:56;11.27;;;7.63;;
19842;SDS011;10082;51.038;6.992;2022-10-12T05:49:23;11.27;;;7.30;;
19842;SDS011;10082;51.038;6.992;2022-10-12T05:51:50;7.43;;;6.40;;
19842;SDS011;10082;51.038;6.992;2022-10-12T05:54:19;8.20;;;6.43;;
19842;SDS011;10082;51.038;6.992;2022-10-12T05:56:47;9.60;;;6.80;;
19842;SDS011;10082;51.038;6.992;2022-10-12T05:59:14;11.57;;;6.90;;
19842;SDS011;10082;51.038;6.992;2022-10-12T06:01:41;9.20;;;7.80;;
19842;SDS011;10082;51.038;6.992;2022-10-12T06:04:08;10.70;;;7.33;;
19842;SDS011;10082;51.038;6.992;2022-10-12T06:06:37;10.17;;;7.67;;
19842;SDS011;10082;51.038;6.992;2022-10-12T06:09:04;11.10;;;7.87;;
19842;SDS011;10082;51.038;6.992;2022-10-12T06:11:31;13.83;;;7.10;;
19842;SDS011;10082;51.038;6.992;2022-10-12T06:13:59;8.83;;;7.00;;
19842;SDS011;10082;51.038;6.992;2022-10-12T06:16:26;10.77;;;7.40;;
19842;SDS011;10082;51.038;6.992;2022-10-12T06:18:53;9.60;;;7.20;;
19842;SDS011;10082;51.038;6.992;2022-10-12T06:21:20;9.53;;;7.30;;
19842;SDS011;10082;51.038;6.992;2022-10-12T06:23:47;8.73;;;6.53;;
19842;SDS011;10082;51.038;6.992;2022-10-12T06:26:14;9.53;;;6.83;;
19842;SDS011;10082;51.038;6.992;2022-10-12T06:28:41;8.37;;;6.03;;
19842;SDS011;10082;51.038;6.992;2022-10-12T06:31:10;7.10;;;6.40;;
19842;SDS011;10082;51.038;6.992;2022-10-12T06:33:38;9.60;;;6.63;;
19842;SDS011;10082;51.038;6.992;2022-10-12T06:36:05;6.73;;;5.80;;
19842;SDS011;10082;51.038;6.992;2022-10-12T06:38:32;8.63;;;6.27;;
19842;SDS011;10082;51.038;6.992;2022-10-12T06:40:59;7.10;;;6.13;;
19842;SDS011;10082;51.038;6.992;2022-10-12T06:43:26;7.53;;;5.87;;
19842;SDS011;10082;51.038;6.992;2022-10-12T06:45:53;11.07;;;6.63;;
19842;SDS011;10082;51.038;6.992;2022-10-12T06:48:28;8.30;;;5.43;;
19842;SDS011;10082;51.038;6.992;2022-10-12T06:50:55;7.97;;;5.47;;
19842;SDS011;10082;51.038;6.992;2022-10-12T06:53:22;7.23;;;6.00;;
19842;SDS011;10082;51.038;6.992;2022-10-12T06:55:49;7.97;;;5.83;;
19842;SDS011;10082;51.038;6.992;2022-10-12T06:58:16;9.10;;;5.40;;
19842;SDS011;10082;51.038;6.992;2022-10-12T07:00:43;8.97;;;5.60;;
19842;SDS011;10082;51.038;6.992;2022-10-12T07:03:12;8.07;;;5.23;;
19842;SDS011;10082;51.038;6.992;2022-10-12T07:05:42;7.77;;;5.20;;
19842;SDS011;10082;51.038;6.992;2022-10-12T07:08:09;7.83;;;4.67;;
19842;SDS011;10082;51.038;6.992;2022-10-12T07:10:36;5.47;;;4.03;;
19842;SDS011;10082;51.038;6.992;2022-10-12T07:13:02;5.77;;;3.57;;
19842;SDS011;10082;51.038;6.992;2022-10-12T07:15:29;5.93;;;3.75;;
19842;SDS011;10082;51.038;6.992;2022-10-12T07:17:56;6.25;;;3.60;;
19842;SDS011;10082;51.038;6.992;2022-10-12T07:20:23;5.40;;;3.88;;
19842;SDS011;10082;51.038;6.992;2022-10-12T07:22:52;6.45;;;3.80;;
19842;SDS011;10082;51.038;6.992;2022-10-12T07:25:19;6.13;;;3.55;;
19842;SDS011;10082;51.038;6.992;2022-10-12T07:27:46;6.65;;;3.38;;
19842;SDS011;10082;51.038;6.992;2022-10-12T07:30:13;6.40;;;3.38;;
19842;SDS011;10082;51.038;6.992;2022-10-12T07:32:40;7.38;;;3.75;;
19842;SDS011;10082;51.038;6.992;2022-10-12T07:35:08;4.30;;;3.58;;
19842;SDS011;10082;51.038;6.992;2022-10-12T07:37:35;5.47;;;3.20;;
19842;SDS011;10082;51.038;6.992;2022-10-12T07:40:04;4.97;;;2.80;;
19842;SDS011;10082;51.038;6.992;2022-10-12T07:42:32;6.88;;;3.42;;
19842;SDS011;10082;51.038;6.992;2022-10-12T07:44:58;4.10;;;3.00;;
19842;SDS011;10082;51.038;6.992;2022-10-12T07:47:25;6.32;;;3.97;;
19842;SDS011;10082;51.038;6.992;2022-10-12T07:49:52;7.75;;;3.97;;
19842;SDS011;10082;51.038;6.992;2022-10-12T07:52:19;5.25;;;3.35;;
19842;SDS011;10082;51.038;6.992;2022-10-12T07:54:46;6.72;;;3.67;;
19842;SDS011;10082;51.038;6.992;2022-10-12T07:57:14;5.22;;;3.38;;
19842;SDS011;10082;51.038;6.992;2022-10-12T07:59:41;4.50;;;3.22;;
19842;SDS011;10082;51.038;6.992;2022-10-12T08:02:08;6.68;;;3.20;;
19842;SDS011;10082;51.038;6.992;2022-10-12T08:04:36;4.72;;;3.33;;
19842;SDS011;10082;51.038;6.992;2022-10-12T08:07:03;5.10;;;2.85;;
19842;SDS011;10082;51.038;6.992;2022-10-12T08:09:30;3.53;;;2.60;;
19842;SDS011;10082;51.038;6.992;2022-10-12T08:11:56;5.50;;;3.33;;
19842;SDS011;10082;51.038;6.992;2022-10-12T08:14:25;4.88;;;2.60;;
19842;SDS011;10082;51.038;6.992;2022-10-12T08:16:52;5.15;;;2.80;;
19842;SDS011;10082;51.038;6.992;2022-10-12T08:19:19;5.88;;;3.10;;
19842;SDS011;10082;51.038;6.992;2022-10-12T08:21:47;4.72;;;2.72;;
19842;SDS011;10082;51.038;6.992;2022-10-12T08:24:14;6.28;;;2.92;;
19842;SDS011;10082;51.038;6.992;2022-10-12T08:26:41;5.05;;;2.83;;
19842;SDS011;10082;51.038;6.992;2022-10-12T08:29:08;4.13;;;2.92;;
19842;SDS011;10082;51.038;6.992;2022-10-12T08:31:38;4.53;;;2.30;;
19842;SDS011;10082;51.038;6.992;2022-10-12T08:34:04;6.40;;;2.70;;
19842;SDS011;10082;51.038;6.992;2022-10-12T08:36:32;6.25;;;2.70;;
19842;SDS011;10082;51.038;6.992;2022-10-12T08:38:59;4.53;;;2.88;;
19842;SDS011;10082;51.038;6.992;2022-10-12T08:41:33;4.15;;;2.40;;
19842;SDS011;10082;51.038;6.992;2022-10-12T08:44:10;4.45;;;2.40;;
19842;SDS011;10082;51.038;6.992;2022-10-12T08:46:55;5.75;;;2.75;;
19842;SDS011;10082;51.038;6.992;2022-10-12T08:49:25;5.57;;;2.67;;
19842;SDS011;10082;51.038;6.992;2022-10-12T08:51:56;4.35;;;2.55;;
19842;SDS011;10082;51.038;6.992;2022-10-12T08:54:27;5.35;;;2.22;;
19842;SDS011;10082;51.038;6.992;2022-10-12T08:56:57;4.70;;;2.40;;
19842;SDS011;10082;51.038;6.992;2022-10-12T08:59:24;5.57;;;2.65;;
19842;SDS011;10082;51.038;6.992;2022-10-12T09:02:12;3.88;;;2.60;;
19842;SDS011;10082;51.038;6.992;2022-10-12T09:04:59;5.47;;;2.63;;
19842;SDS011;10082;51.038;6.992;2022-10-12T09:07:30;5.95;;;2.35;;
19842;SDS011;10082;51.038;6.992;2022-10-12T09:10:05;4.60;;;2.38;;
19842;SDS011;10082;51.038;6.992;2022-10-12T09:12:45;3.65;;;2.25;;
19842;SDS011;10082;51.038;6.992;2022-10-12T09:15:19;7.20;;;2.90;;
19842;SDS011;10082;51.038;6.992;2022-10-12T09:17:50;4.78;;;2.22;;
19842;SDS011;10082;51.038;6.992;2022-10-12T09:20:19;6.97;;;2.58;;
19842;SDS011;10082;51.038;6.992;2022-10-12T09:22:49;4.60;;;2.25;;
19842;SDS011;10082;51.038;6.992;2022-10-12T09:25:18;5.53;;;2.22;;
19842;SDS011;10082;51.038;6.992;2022-10-12T09:27:48;5.85;;;2.95;;
19842;SDS011;10082;51.038;6.992;2022-10-12T09:30:16;7.15;;;3.00;;
19842;SDS011;10082;51.038;6.992;2022-10-12T09:33:02;9.63;;;2.92;;
19842;SDS011;10082;51.038;6.992;2022-10-12T09:35:37;3.95;;;2.40;;
19842;SDS011;10082;51.038;6.992;2022-10-12T09:38:06;5.30;;;2.67;;
19842;SDS011;10082;51.038;6.992;2022-10-12T09:40:35;4.60;;;2.63;;
19842;SDS011;10082;51.038;6.992;2022-10-12T09:43:03;4.53;;;2.30;;
19842;SDS011;10082;51.038;6.992;2022-10-12T09:45:32;5.28;;;2.72;;
19842;SDS011;10082;51.038;6.992;2022-10-12T09:48:09;6.22;;;2.63;;
19842;SDS011;10082;51.038;6.992;2022-10-12T09:50:41;4.75;;;2.78;;
19842;SDS011;10082;51.038;6.992;2022-10-12T09:53:12;5.18;;;2.65;;
19842;SDS011;10082;51.038;6.992;2022-10-12T09:55:50;8.35;;;3.28;;
19842;SDS011;10082;51.038;6.992;2022-10-12T09:58:24;7.35;;;2.55;;
19842;SDS011;10082;51.038;6.992;2022-10-12T10:03:48;5.50;;;2.60;;
19842;SDS011;10082;51.038;6.992;2022-10-12T10:06:23;4.25;;;2.90;;
19842;SDS011;10082;51.038;6.992;2022-10-12T10:08:50;7.80;;;3.15;;
19842;SDS011;10082;51.038;6.992;2022-10-12T10:11:22;7.47;;;2.80;;
19842;SDS011;10082;51.038;6.992;2022-10-12T10:13:52;5.75;;;2.72;;
19842;SDS011;10082;51.038;6.992;2022-10-12T10:16:21;6.45;;;2.83;;
19842;SDS011;10082;51.038;6.992;2022-10-12T10:18:55;5.47;;;3.20;;
19842;SDS011;10082;51.038;6.992;2022-10-12T10:21:23;7.97;;;2.70;;
19842;SDS011;10082;51.038;6.992;2022-10-12T10:23:52;5.38;;;3.35;;
19842;SDS011;10082;51.038;6.992;2022-10-12T10:26:21;5.13;;;2.90;;
19842;SDS011;10082;51.038;6.992;2022-10-12T10:28:50;7.28;;;3.25;;
19842;SDS011;10082;51.038;6.992;2022-10-12T10:31:28;6.72;;;3.30;;
19842;SDS011;10082;51.038;6.992;2022-10-12T10:34:09;8.73;;;3.95;;
19842;SDS011;10082;51.038;6.992;2022-10-12T10:36:45;8.90;;;3.22;;
19842;SDS011;10082;51.038;6.992;2022-10-12T10:39:15;9.07;;;3.13;;
19842;SDS011;10082;51.038;6.992;2022-10-12T10:41:45;6.80;;;2.90;;
19842;SDS011;10082;51.038;6.992;2022-10-12T10:44:19;5.47;;;3.00;;
19842;SDS011;10082;51.038;6.992;2022-10-12T10:46:50;5.72;;;3.05;;
19842;SDS011;10082;51.038;6.992;2022-10-12T10:49:22;7.57;;;3.13;;
19842;SDS011;10082;51.038;6.992;2022-10-12T10:51:54;6.80;;;3.15;;
19842;SDS011;10082;51.038;6.992;2022-10-12T10:54:25;6.28;;;3.00;;
19842;SDS011;10082;51.038;6.992;2022-10-12T10:56:56;6.30;;;2.90;;
19842;SDS011;10082;51.038;6.992;2022-10-12T10:59:40;5.78;;;3.35;;
19842;SDS011;10082;51.038;6.992;2022-10-12T11:02:15;4.97;;;2.28;;
19842;SDS011;10082;51.038;6.992;2022-10-12T11:04:49;6.60;;;2.67;;
19842;SDS011;10082;51.038;6.992;2022-10-12T11:07:23;7.35;;;2.92;;
19842;SDS011;10082;51.038;6.992;2022-10-12T11:09:56;6.93;;;2.55;;
19842;SDS011;10082;51.038;6.992;2022-10-12T11:12:27;5.80;;;3.08;;
19842;SDS011;10082;51.038;6.992;2022-10-12T11:14:57;5.28;;;2.83;;
19842;SDS011;10082;51.038;6.992;2022-10-12T11:17:32;4.32;;;2.55;;
19842;SDS011;10082;51.038;6.992;2022-10-12T11:23:02;6.43;;;2.80;;
19842;SDS011;10082;51.038;6.992;2022-10-12T11:25:37;8.02;;;3.47;;
19842;SDS011;10082;51.038;6.992;2022-10-12T11:28:09;7.10;;;3.03;;
19842;SDS011;10082;51.038;6.992;2022-10-12T11:30:40;6.72;;;2.40;;
19842;SDS011;10082;51.038;6.992;2022-10-12T11:33:11;7.68;;;3.25;;
19842;SDS011;10082;51.038;6.992;2022-10-12T11:35:44;7.28;;;3.10;;
19842;SDS011;10082;51.038;6.992;2022-10-12T11:38:13;7.03;;;2.97;;
19842;SDS011;10082;51.038;6.992;2022-10-12T11:40:46;8.55;;;3.00;;
19842;SDS011;10082;51.038;6.992;2022-10-12T11:43:18;10.00;;;3.50;;
19842;SDS011;10082;51.038;6.992;2022-10-12T11:46:04;4.95;;;2.60;;
19842;SDS011;10082;51.038;6.992;2022-10-12T11:48:34;6.78;;;3.00;;
19842;SDS011;10082;51.038;6.992;2022-10-12T11:51:08;5.70;;;2.90;;
19842;SDS011;10082;51.038;6.992;2022-10-12T11:53:39;5.82;;;3.30;;
19842;SDS011;10082;51.038;6.992;2022-10-12T11:56:13;9.40;;;2.90;;
19842;SDS011;10082;51.038;6.992;2022-10-12T11:58:45;6.20;;;2.95;;
19842;SDS011;10082;51.038;6.992;2022-10-12T12:01:27;8.77;;;3.33;;
19842;SDS011;10082;51.038;6.992;2022-10-12T12:04:13;8.88;;;3.55;;
19842;SDS011;10082;51.038;6.992;2022-10-12T12:09:38;9.32;;;3.35;;
19842;SDS011;10082;51.038;6.992;2022-10-12T12:12:12;7.38;;;3.25;;
19842;SDS011;10082;51.038;6.992;2022-10-12T12:14:58;7.97;;;3.20;;
19842;SDS011;10082;51.038;6.992;2022-10-12T12:17:27;8.98;;;4.80;;
19842;SDS011;10082;51.038;6.992;2022-10-12T12:19:55;9.75;;;4.60;;
19842;SDS011;10082;51.038;6.992;2022-10-12T12:22:28;6.13;;;3.15;;
19842;SDS011;10082;51.038;6.992;2022-10-12T12:25:04;5.75;;;3.35;;
19842;SDS011;10082;51.038;6.992;2022-10-12T12:27:42;8.05;;;4.13;;
19842;SDS011;10082;51.038;6.992;2022-10-12T12:30:20;7.38;;;3.75;;
19842;SDS011;10082;51.038;6.992;2022-10-12T12:33:06;7.20;;;4.28;;
19842;SDS011;10082;51.038;6.992;2022-10-12T12:35:55;10.77;;;5.40;;
19842;SDS011;10082;51.038;6.992;2022-10-12T12:38:27;7.25;;;4.30;;
19842;SDS011;10082;51.038;6.992;2022-10-12T12:41:03;10.05;;;4.63;;
19842;SDS011;10082;51.038;6.992;2022-10-12T12:46:22;10.80;;;4.25;;
19842;SDS011;10082;51.038;6.992;2022-10-12T12:48:57;8.95;;;4.20;;
19842;SDS011;10082;51.038;6.992;2022-10-12T12:51:32;8.07;;;4.13;;
19842;SDS011;10082;51.038;6.992;2022-10-12T12:54:05;7.10;;;4.43;;
19842;SDS011;10082;51.038;6.992;2022-10-12T12:56:39;5.72;;;3.90;;
19842;SDS011;10082;51.038;6.992;2022-10-12T12:59:23;8.60;;;4.60;;
19842;SDS011;10082;51.038;6.992;2022-10-12T13:02:13;12.82;;;9.02;;
19842;SDS011;10082;51.038;6.992;2022-10-12T13:05:01;8.38;;;4.55;;
19842;SDS011;10082;51.038;6.992;2022-10-12T13:07:53;6.15;;;4.18;;
19842;SDS011;10082;51.038;6.992;2022-10-12T13:10:36;6.97;;;3.83;;
19842;SDS011;10082;51.038;6.992;2022-10-12T13:13:18;6.50;;;4.00;;
19842;SDS011;10082;51.038;6.992;2022-10-12T13:16:03;8.77;;;4.47;;
19842;SDS011;10082;51.038;6.992;2022-10-12T13:18:46;13.50;;;4.70;;
19842;SDS011;10082;51.038;6.992;2022-10-12T13:21:18;10.00;;;4.50;;
19842;SDS011;10082;51.038;6.992;2022-10-12T13:23:49;6.82;;;4.43;;
19842;SDS011;10082;51.038;6.992;2022-10-12T13:26:22;7.55;;;4.00;;
19842;SDS011;10082;51.038;6.992;2022-10-12T13:28:53;8.20;;;4.75;;
19842;SDS011;10082;51.038;6.992;2022-10-12T13:31:25;6.18;;;4.30;;
19842;SDS011;10082;51.038;6.992;2022-10-12T13:33:58;8.60;;;4.70;;
19842;SDS011;10082;51.038;6.992;2022-10-12T13:36:29;5.78;;;4.40;;
19842;SDS011;10082;51.038;6.992;2022-10-12T13:38:59;6.72;;;3.85;;
19842;SDS011;10082;51.038;6.992;2022-10-12T13:41:42;6.05;;;4.07;;
19842;SDS011;10082;51.038;6.992;2022-10-12T13:44:17;5.82;;;3.70;;
19842;SDS011;10082;51.038;6.992;2022-10-12T13:46:47;9.82;;;4.18;;
19842;SDS011;10082;51.038;6.992;2022-10-12T13:49:24;7.13;;;4.45;;
19842;SDS011;10082;51.038;6.992;2022-10-12T13:51:53;5.13;;;4.20;;
19842;SDS011;10082;51.038;6.992;2022-10-12T13:54:22;6.38;;;4.95;;
19842;SDS011;10082;51.038;6.992;2022-10-12T13:56:53;8.20;;;5.20;;
19842;SDS011;10082;51.038;6.992;2022-10-12T13:59:24;6.63;;;5.30;;
19842;SDS011;10082;51.038;6.992;2022-10-12T14:01:55;8.93;;;5.75;;
19842;SDS011;10082;51.038;6.992;2022-10-12T14:04:26;6.95;;;4.30;;
19842;SDS011;10082;51.038;6.992;2022-10-12T14:06:56;6.47;;;4.45;;
19842;SDS011;10082;51.038;6.992;2022-10-12T14:09:27;6.95;;;5.25;;
19842;SDS011;10082;51.038;6.992;2022-10-12T14:12:00;6.20;;;4.07;;
19842;SDS011;10082;51.038;6.992;2022-10-12T14:14:29;9.13;;;4.72;;
19842;SDS011;10082;51.038;6.992;2022-10-12T14:16:57;7.03;;;4.47;;
19842;SDS011;10082;51.038;6.992;2022-10-12T14:19:32;7.25;;;4.22;;
19842;SDS011;10082;51.038;6.992;2022-10-12T14:22:11;9.05;;;4.38;;
19842;SDS011;10082;51.038;6.992;2022-10-12T14:25:06;5.07;;;3.85;;
19842;SDS011;10082;51.038;6.992;2022-10-12T14:27:38;7.20;;;4.40;;
19842;SDS011;10082;51.038;6.992;2022-10-12T14:30:13;6.22;;;3.95;;
19842;SDS011;10082;51.038;6.992;2022-10-12T14:32:46;8.73;;;4.13;;
19842;SDS011;10082;51.038;6.992;2022-10-12T14:35:22;7.28;;;4.72;;
19842;SDS011;10082;51.038;6.992;2022-10-12T14:37:51;7.72;;;4.15;;
19842;SDS011;10082;51.038;6.992;2022-10-12T14:40:33;7.72;;;4.10;;
19842;SDS011;10082;51.038;6.992;2022-10-12T14:43:17;6.55;;;4.22;;
19842;SDS011;10082;51.038;6.992;2022-10-12T14:45:48;7.57;;;4.43;;
19842;SDS011;10082;51.038;6.992;2022-10-12T14:48:16;6.65;;;4.07;;
19842;SDS011;10082;51.038;6.992;2022-10-12T14:50:46;5.75;;;4.32;;
19842;SDS011;10082;51.038;6.992;2022-10-12T14:53:14;7.40;;;4.72;;
19842;SDS011;10082;51.038;6.992;2022-10-12T14:55:41;6.70;;;4.28;;
19842;SDS011;10082;51.038;6.992;2022-10-12T14:58:12;7.00;;;4.00;;
19842;SDS011;10082;51.038;6.992;2022-10-12T15:00:41;7.55;;;3.85;;
19842;SDS011;10082;51.038;6.992;2022-10-12T15:03:09;5.53;;;4.15;;
19842;SDS011;10082;51.038;6.992;2022-10-12T15:05:36;5.55;;;3.70;;
19842;SDS011;10082;51.038;6.992;2022-10-12T15:08:03;6.55;;;3.40;;
19842;SDS011;10082;51.038;6.992;2022-10-12T15:10:33;6.28;;;3.67;;
19842;SDS011;10082;51.038;6.992;2022-10-12T15:13:00;4.90;;;3.67;;
19842;SDS011;10082;51.038;6.992;2022-10-12T15:15:31;8.32;;;3.67;;
19842;SDS011;10082;51.038;6.992;2022-10-12T15:18:01;5.60;;;3.78;;